sensor_id;sensor_type;location;lat;lon;timestamp;P1;durP1;ratioP1;P2;durP2;ratioP2
49412;SDS011;35493;50.276;9.372;2022-07-22T00:01:16;5.65;;;2.55;;
49412;SDS011;35493;50.276;9.372;2022-07-22T00:03:44;4.40;;;2.53;;
49412;SDS011;35493;50.276;9.372;2022-07-22T00:06:11;6.05;;;2.53;;
49412;SDS011;35493;50.276;9.372;2022-07-22T00:08:39;5.97;;;2.60;;
49412;SDS011;35493;50.276;9.372;2022-07-22T00:11:06;6.65;;;3.22;;
49412;SDS011;35493;50.276;9.372;2022-07-22T00:13:33;5.57;;;2.70;;
49412;SDS011;35493;50.276;9.372;2022-07-22T00:16:00;5.47;;;3.00;;
49412;SDS011;35493;50.276;9.372;2022-07-22T00:18:27;5.28;;;2.92;;
49412;SDS011;35493;50.276;9.372;2022-07-22T00:20:56;5.32;;;3.10;;
49412;SDS011;35493;50.276;9.372;2022-07-22T00:23:23;7.03;;;3.30;;
49412;SDS011;35493;50.276;9.372;2022-07-22T00:25:50;6.25;;;3.45;;
49412;SDS011;35493;50.276;9.372;2022-07-22T00:28:18;7.07;;;3.28;;
49412;SDS011;35493;50.276;9.372;2022-07-22T00:30:45;4.82;;;2.60;;
49412;SDS011;35493;50.276;9.372;2022-07-22T00:33:12;5.22;;;2.85;;
49412;SDS011;35493;50.276;9.372;2022-07-22T00:35:40;5.15;;;3.05;;
49412;SDS011;35493;50.276;9.372;2022-07-22T00:38:08;5.95;;;2.95;;
49412;SDS011;35493;50.276;9.372;2022-07-22T00:40:35;7.43;;;3.20;;
49412;SDS011;35493;50.276;9.372;2022-07-22T00:43:02;6.05;;;2.67;;
49412;SDS011;35493;50.276;9.372;2022-07-22T00:45:29;7.80;;;3.47;;
49412;SDS011;35493;50.276;9.372;2022-07-22T00:47:56;4.70;;;2.90;;
49412;SDS011;35493;50.276;9.372;2022-07-22T00:50:23;6.20;;;2.72;;
49412;SDS011;35493;50.276;9.372;2022-07-22T00:52:50;6.85;;;3.05;;
49412;SDS011;35493;50.276;9.372;2022-07-22T00:55:19;6.15;;;3.45;;
49412;SDS011;35493;50.276;9.372;2022-07-22T00:57:46;8.68;;;4.93;;
49412;SDS011;35493;50.276;9.372;2022-07-22T01:00:14;8.80;;;4.80;;
49412;SDS011;35493;50.276;9.372;2022-07-22T01:02:45;9.88;;;4.45;;
49412;SDS011;35493;50.276;9.372;2022-07-22T01:05:12;9.68;;;3.80;;
49412;SDS011;35493;50.276;9.372;2022-07-22T01:07:39;7.03;;;3.58;;
49412;SDS011;35493;50.276;9.372;2022-07-22T01:10:07;6.38;;;3.90;;
49412;SDS011;35493;50.276;9.372;2022-07-22T01:12:36;6.13;;;3.55;;
49412;SDS011;35493;50.276;9.372;2022-07-22T01:15:03;6.35;;;3.67;;
49412;SDS011;35493;50.276;9.372;2022-07-22T01:17:31;6.45;;;3.38;;
49412;SDS011;35493;50.276;9.372;2022-07-22T01:20:00;7.30;;;3.10;;
49412;SDS011;35493;50.276;9.372;2022-07-22T01:22:29;4.47;;;2.70;;
49412;SDS011;35493;50.276;9.372;2022-07-22T01:24:58;4.65;;;2.40;;
49412;SDS011;35493;50.276;9.372;2022-07-22T01:27:25;4.80;;;2.65;;
49412;SDS011;35493;50.276;9.372;2022-07-22T01:29:52;5.90;;;2.97;;
49412;SDS011;35493;50.276;9.372;2022-07-22T01:32:19;5.95;;;2.90;;
49412;SDS011;35493;50.276;9.372;2022-07-22T01:34:46;4.72;;;2.50;;
49412;SDS011;35493;50.276;9.372;2022-07-22T01:37:14;7.20;;;3.00;;
49412;SDS011;35493;50.276;9.372;2022-07-22T01:39:41;6.15;;;2.78;;
49412;SDS011;35493;50.276;9.372;2022-07-22T01:42:09;5.20;;;2.83;;
49412;SDS011;35493;50.276;9.372;2022-07-22T01:44:36;5.63;;;2.80;;
49412;SDS011;35493;50.276;9.372;2022-07-22T01:47:03;6.45;;;3.08;;
49412;SDS011;35493;50.276;9.372;2022-07-22T01:49:30;6.80;;;2.85;;
49412;SDS011;35493;50.276;9.372;2022-07-22T01:51:58;5.00;;;2.65;;
49412;SDS011;35493;50.276;9.372;2022-07-22T01:54:26;6.95;;;2.92;;
49412;SDS011;35493;50.276;9.372;2022-07-22T01:56:53;6.07;;;2.58;;
49412;SDS011;35493;50.276;9.372;2022-07-22T01:59:21;5.80;;;2.63;;
49412;SDS011;35493;50.276;9.372;2022-07-22T02:01:48;5.90;;;2.97;;
49412;SDS011;35493;50.276;9.372;2022-07-22T02:04:16;6.55;;;3.10;;
49412;SDS011;35493;50.276;9.372;2022-07-22T02:06:43;7.30;;;3.40;;
49412;SDS011;35493;50.276;9.372;2022-07-22T02:09:10;5.10;;;2.97;;
49412;SDS011;35493;50.276;9.372;2022-07-22T02:11:45;7.05;;;3.10;;
49412;SDS011;35493;50.276;9.372;2022-07-22T02:14:14;5.75;;;2.80;;
49412;SDS011;35493;50.276;9.372;2022-07-22T02:16:42;7.13;;;3.35;;
49412;SDS011;35493;50.276;9.372;2022-07-22T02:19:10;7.10;;;3.37;;
49412;SDS011;35493;50.276;9.372;2022-07-22T02:21:37;5.32;;;3.25;;
49412;SDS011;35493;50.276;9.372;2022-07-22T02:24:04;9.15;;;3.38;;
49412;SDS011;35493;50.276;9.372;2022-07-22T02:26:31;5.63;;;3.00;;
49412;SDS011;35493;50.276;9.372;2022-07-22T02:29:01;5.32;;;3.13;;
49412;SDS011;35493;50.276;9.372;2022-07-22T02:31:28;6.55;;;3.55;;
49412;SDS011;35493;50.276;9.372;2022-07-22T02:33:55;5.53;;;3.28;;
49412;SDS011;35493;50.276;9.372;2022-07-22T02:36:24;6.33;;;3.40;;
49412;SDS011;35493;50.276;9.372;2022-07-22T02:38:51;6.68;;;3.28;;
49412;SDS011;35493;50.276;9.372;2022-07-22T02:41:18;7.43;;;3.33;;
49412;SDS011;35493;50.276;9.372;2022-07-22T02:43:50;6.20;;;3.10;;
49412;SDS011;35493;50.276;9.372;2022-07-22T02:46:20;8.43;;;3.13;;
49412;SDS011;35493;50.276;9.372;2022-07-22T02:48:48;5.57;;;3.17;;
49412;SDS011;35493;50.276;9.372;2022-07-22T02:51:17;7.70;;;2.95;;
49412;SDS011;35493;50.276;9.372;2022-07-22T02:53:44;7.30;;;3.58;;
49412;SDS011;35493;50.276;9.372;2022-07-22T02:56:11;5.68;;;2.88;;
49412;SDS011;35493;50.276;9.372;2022-07-22T02:58:38;5.20;;;3.08;;
49412;SDS011;35493;50.276;9.372;2022-07-22T03:01:05;7.72;;;3.53;;
49412;SDS011;35493;50.276;9.372;2022-07-22T03:03:44;5.65;;;2.95;;
49412;SDS011;35493;50.276;9.372;2022-07-22T03:06:11;5.00;;;3.00;;
49412;SDS011;35493;50.276;9.372;2022-07-22T03:08:52;5.53;;;2.75;;
49412;SDS011;35493;50.276;9.372;2022-07-22T03:11:19;7.30;;;3.28;;
49412;SDS011;35493;50.276;9.372;2022-07-22T03:13:46;6.10;;;2.85;;
49412;SDS011;35493;50.276;9.372;2022-07-22T03:16:13;5.40;;;3.15;;
49412;SDS011;35493;50.276;9.372;2022-07-22T03:18:40;6.40;;;2.95;;
49412;SDS011;35493;50.276;9.372;2022-07-22T03:21:08;6.18;;;2.97;;
49412;SDS011;35493;50.276;9.372;2022-07-22T03:23:35;5.78;;;3.22;;
49412;SDS011;35493;50.276;9.372;2022-07-22T03:26:02;10.15;;;3.10;;
49412;SDS011;35493;50.276;9.372;2022-07-22T03:28:29;5.57;;;2.65;;
49412;SDS011;35493;50.276;9.372;2022-07-22T03:30:56;6.28;;;3.03;;
49412;SDS011;35493;50.276;9.372;2022-07-22T03:33:23;5.55;;;3.10;;
49412;SDS011;35493;50.276;9.372;2022-07-22T03:35:51;6.22;;;2.83;;
49412;SDS011;35493;50.276;9.372;2022-07-22T03:38:19;6.65;;;3.30;;
49412;SDS011;35493;50.276;9.372;2022-07-22T03:40:47;5.75;;;2.78;;
49412;SDS011;35493;50.276;9.372;2022-07-22T03:43:14;8.15;;;3.05;;
49412;SDS011;35493;50.276;9.372;2022-07-22T03:45:41;5.85;;;2.58;;
49412;SDS011;35493;50.276;9.372;2022-07-22T03:48:09;7.03;;;3.10;;
49412;SDS011;35493;50.276;9.372;2022-07-22T03:50:38;4.95;;;2.70;;
49412;SDS011;35493;50.276;9.372;2022-07-22T03:53:05;6.60;;;3.60;;
49412;SDS011;35493;50.276;9.372;2022-07-22T03:55:37;7.82;;;3.22;;
49412;SDS011;35493;50.276;9.372;2022-07-22T03:58:05;5.50;;;2.92;;
49412;SDS011;35493;50.276;9.372;2022-07-22T04:00:32;6.13;;;2.95;;
49412;SDS011;35493;50.276;9.372;2022-07-22T04:03:02;5.55;;;2.92;;
49412;SDS011;35493;50.276;9.372;2022-07-22T04:05:57;5.57;;;2.72;;
49412;SDS011;35493;50.276;9.372;2022-07-22T04:08:33;5.90;;;3.03;;
49412;SDS011;35493;50.276;9.372;2022-07-22T04:11:03;5.00;;;2.92;;
49412;SDS011;35493;50.276;9.372;2022-07-22T04:13:30;5.22;;;2.92;;
49412;SDS011;35493;50.276;9.372;2022-07-22T04:15:58;8.25;;;3.08;;
49412;SDS011;35493;50.276;9.372;2022-07-22T04:18:27;5.32;;;2.88;;
49412;SDS011;35493;50.276;9.372;2022-07-22T04:20:56;4.72;;;2.63;;
49412;SDS011;35493;50.276;9.372;2022-07-22T04:23:23;5.65;;;2.85;;
49412;SDS011;35493;50.276;9.372;2022-07-22T04:25:59;5.53;;;2.67;;
49412;SDS011;35493;50.276;9.372;2022-07-22T04:28:27;7.82;;;3.05;;
49412;SDS011;35493;50.276;9.372;2022-07-22T04:30:54;6.45;;;3.35;;
49412;SDS011;35493;50.276;9.372;2022-07-22T04:33:21;5.15;;;3.03;;
49412;SDS011;35493;50.276;9.372;2022-07-22T04:35:48;7.30;;;3.85;;
49412;SDS011;35493;50.276;9.372;2022-07-22T04:38:17;6.13;;;3.10;;
49412;SDS011;35493;50.276;9.372;2022-07-22T04:41:00;6.43;;;3.45;;
49412;SDS011;35493;50.276;9.372;2022-07-22T04:43:29;6.45;;;3.22;;
49412;SDS011;35493;50.276;9.372;2022-07-22T04:45:56;6.15;;;3.08;;
49412;SDS011;35493;50.276;9.372;2022-07-22T04:48:27;5.93;;;3.33;;
49412;SDS011;35493;50.276;9.372;2022-07-22T04:50:54;5.18;;;3.03;;
49412;SDS011;35493;50.276;9.372;2022-07-22T04:53:24;5.25;;;2.65;;
49412;SDS011;35493;50.276;9.372;2022-07-22T04:55:51;6.10;;;3.00;;
49412;SDS011;35493;50.276;9.372;2022-07-22T04:58:18;8.20;;;3.22;;
49412;SDS011;35493;50.276;9.372;2022-07-22T05:00:47;6.60;;;3.03;;
49412;SDS011;35493;50.276;9.372;2022-07-22T05:03:14;7.10;;;2.90;;
49412;SDS011;35493;50.276;9.372;2022-07-22T05:05:42;5.70;;;3.15;;
49412;SDS011;35493;50.276;9.372;2022-07-22T05:08:11;5.47;;;2.80;;
49412;SDS011;35493;50.276;9.372;2022-07-22T05:10:38;5.43;;;2.50;;
49412;SDS011;35493;50.276;9.372;2022-07-22T05:13:05;4.93;;;2.45;;
49412;SDS011;35493;50.276;9.372;2022-07-22T05:15:33;4.55;;;2.67;;
49412;SDS011;35493;50.276;9.372;2022-07-22T05:18:01;5.10;;;2.42;;
49412;SDS011;35493;50.276;9.372;2022-07-22T05:20:31;4.93;;;2.45;;
49412;SDS011;35493;50.276;9.372;2022-07-22T05:22:58;5.78;;;2.72;;
49412;SDS011;35493;50.276;9.372;2022-07-22T05:25:28;5.20;;;2.63;;
49412;SDS011;35493;50.276;9.372;2022-07-22T05:27:55;5.57;;;2.53;;
49412;SDS011;35493;50.276;9.372;2022-07-22T05:30:26;6.38;;;3.10;;
49412;SDS011;35493;50.276;9.372;2022-07-22T05:32:53;4.45;;;2.53;;
49412;SDS011;35493;50.276;9.372;2022-07-22T05:35:40;4.57;;;2.60;;
49412;SDS011;35493;50.276;9.372;2022-07-22T05:38:07;5.50;;;2.30;;
49412;SDS011;35493;50.276;9.372;2022-07-22T05:40:34;5.93;;;2.53;;
49412;SDS011;35493;50.276;9.372;2022-07-22T05:43:02;4.45;;;2.63;;
49412;SDS011;35493;50.276;9.372;2022-07-22T05:45:29;5.22;;;2.72;;
49412;SDS011;35493;50.276;9.372;2022-07-22T05:47:56;4.68;;;2.53;;
49412;SDS011;35493;50.276;9.372;2022-07-22T05:50:24;5.95;;;2.63;;
49412;SDS011;35493;50.276;9.372;2022-07-22T05:52:52;5.30;;;2.88;;
49412;SDS011;35493;50.276;9.372;2022-07-22T05:55:21;5.82;;;3.30;;
49412;SDS011;35493;50.276;9.372;2022-07-22T05:57:48;5.35;;;2.90;;
49412;SDS011;35493;50.276;9.372;2022-07-22T06:00:15;5.80;;;2.75;;
49412;SDS011;35493;50.276;9.372;2022-07-22T06:02:43;4.80;;;2.63;;
49412;SDS011;35493;50.276;9.372;2022-07-22T06:05:16;6.18;;;3.05;;
49412;SDS011;35493;50.276;9.372;2022-07-22T06:07:43;4.28;;;2.58;;
49412;SDS011;35493;50.276;9.372;2022-07-22T06:10:15;3.92;;;2.42;;
49412;SDS011;35493;50.276;9.372;2022-07-22T06:12:42;5.68;;;2.75;;
49412;SDS011;35493;50.276;9.372;2022-07-22T06:15:09;5.30;;;2.05;;
49412;SDS011;35493;50.276;9.372;2022-07-22T06:17:37;4.13;;;2.30;;
49412;SDS011;35493;50.276;9.372;2022-07-22T06:20:05;3.42;;;1.90;;
49412;SDS011;35493;50.276;9.372;2022-07-22T06:22:32;3.65;;;1.90;;
49412;SDS011;35493;50.276;9.372;2022-07-22T06:24:59;3.13;;;1.75;;
49412;SDS011;35493;50.276;9.372;2022-07-22T06:27:29;4.30;;;2.35;;
49412;SDS011;35493;50.276;9.372;2022-07-22T06:29:56;2.72;;;1.70;;
49412;SDS011;35493;50.276;9.372;2022-07-22T06:32:23;3.47;;;2.13;;
49412;SDS011;35493;50.276;9.372;2022-07-22T06:34:50;4.32;;;2.38;;
49412;SDS011;35493;50.276;9.372;2022-07-22T06:37:17;5.13;;;2.03;;
49412;SDS011;35493;50.276;9.372;2022-07-22T06:39:45;3.67;;;2.22;;
49412;SDS011;35493;50.276;9.372;2022-07-22T06:42:30;3.38;;;1.90;;
49412;SDS011;35493;50.276;9.372;2022-07-22T06:45:32;3.15;;;1.80;;
49412;SDS011;35493;50.276;9.372;2022-07-22T06:48:10;4.20;;;1.88;;
49412;SDS011;35493;50.276;9.372;2022-07-22T06:50:37;3.17;;;1.85;;
49412;SDS011;35493;50.276;9.372;2022-07-22T06:53:10;3.80;;;1.80;;
49412;SDS011;35493;50.276;9.372;2022-07-22T06:55:38;3.17;;;1.83;;
49412;SDS011;35493;50.276;9.372;2022-07-22T06:58:10;3.47;;;1.90;;
49412;SDS011;35493;50.276;9.372;2022-07-22T07:00:37;4.55;;;1.98;;
49412;SDS011;35493;50.276;9.372;2022-07-22T07:03:20;3.67;;;1.77;;
49412;SDS011;35493;50.276;9.372;2022-07-22T07:05:48;3.10;;;1.88;;
49412;SDS011;35493;50.276;9.372;2022-07-22T07:08:16;3.72;;;1.90;;
49412;SDS011;35493;50.276;9.372;2022-07-22T07:10:44;3.08;;;1.70;;
49412;SDS011;35493;50.276;9.372;2022-07-22T07:13:14;4.13;;;2.17;;
49412;SDS011;35493;50.276;9.372;2022-07-22T07:15:43;2.83;;;1.60;;
49412;SDS011;35493;50.276;9.372;2022-07-22T07:18:10;3.50;;;1.63;;
49412;SDS011;35493;50.276;9.372;2022-07-22T07:20:38;2.55;;;1.50;;
49412;SDS011;35493;50.276;9.372;2022-07-22T07:23:07;2.95;;;1.40;;
49412;SDS011;35493;50.276;9.372;2022-07-22T07:25:39;3.15;;;1.48;;
49412;SDS011;35493;50.276;9.372;2022-07-22T07:28:06;4.30;;;1.60;;
49412;SDS011;35493;50.276;9.372;2022-07-22T07:30:50;2.53;;;1.40;;
49412;SDS011;35493;50.276;9.372;2022-07-22T07:33:17;5.43;;;1.58;;
49412;SDS011;35493;50.276;9.372;2022-07-22T07:35:46;4.03;;;1.90;;
49412;SDS011;35493;50.276;9.372;2022-07-22T07:38:17;4.13;;;2.20;;
49412;SDS011;35493;50.276;9.372;2022-07-22T07:40:44;4.28;;;2.47;;
49412;SDS011;35493;50.276;9.372;2022-07-22T07:43:11;7.03;;;2.40;;
49412;SDS011;35493;50.276;9.372;2022-07-22T07:45:38;5.38;;;2.00;;
49412;SDS011;35493;50.276;9.372;2022-07-22T07:48:07;5.63;;;1.88;;
49412;SDS011;35493;50.276;9.372;2022-07-22T07:50:34;5.50;;;2.35;;
49412;SDS011;35493;50.276;9.372;2022-07-22T07:53:03;3.78;;;1.45;;
49412;SDS011;35493;50.276;9.372;2022-07-22T07:55:31;3.22;;;1.60;;
49412;SDS011;35493;50.276;9.372;2022-07-22T07:58:01;2.95;;;1.60;;
49412;SDS011;35493;50.276;9.372;2022-07-22T08:00:29;3.15;;;1.48;;
49412;SDS011;35493;50.276;9.372;2022-07-22T08:03:01;4.55;;;1.83;;
49412;SDS011;35493;50.276;9.372;2022-07-22T08:05:32;4.65;;;2.35;;
49412;SDS011;35493;50.276;9.372;2022-07-22T08:10:27;6.00;;;2.25;;
49412;SDS011;35493;50.276;9.372;2022-07-22T08:13:17;3.28;;;1.80;;
49412;SDS011;35493;50.276;9.372;2022-07-22T08:15:59;3.72;;;1.77;;
49412;SDS011;35493;50.276;9.372;2022-07-22T08:18:26;3.17;;;1.75;;
49412;SDS011;35493;50.276;9.372;2022-07-22T08:20:55;4.15;;;2.10;;
49412;SDS011;35493;50.276;9.372;2022-07-22T08:23:42;3.92;;;2.30;;
49412;SDS011;35493;50.276;9.372;2022-07-22T08:26:09;4.20;;;1.90;;
49412;SDS011;35493;50.276;9.372;2022-07-22T08:28:36;3.95;;;2.00;;
49412;SDS011;35493;50.276;9.372;2022-07-22T08:31:03;3.22;;;1.90;;
49412;SDS011;35493;50.276;9.372;2022-07-22T08:33:30;3.53;;;1.80;;
49412;SDS011;35493;50.276;9.372;2022-07-22T08:35:58;3.53;;;1.95;;
49412;SDS011;35493;50.276;9.372;2022-07-22T08:38:27;3.78;;;1.75;;
49412;SDS011;35493;50.276;9.372;2022-07-22T08:40:54;3.35;;;1.65;;
49412;SDS011;35493;50.276;9.372;2022-07-22T08:43:22;4.13;;;1.90;;
49412;SDS011;35493;50.276;9.372;2022-07-22T08:45:49;4.38;;;2.10;;
49412;SDS011;35493;50.276;9.372;2022-07-22T08:48:17;4.57;;;2.30;;
49412;SDS011;35493;50.276;9.372;2022-07-22T08:51:00;5.20;;;2.70;;
49412;SDS011;35493;50.276;9.372;2022-07-22T08:56:11;3.85;;;1.50;;
49412;SDS011;35493;50.276;9.372;2022-07-22T08:58:39;3.45;;;1.80;;
49412;SDS011;35493;50.276;9.372;2022-07-22T09:01:07;3.50;;;1.80;;
49412;SDS011;35493;50.276;9.372;2022-07-22T09:03:45;2.20;;;1.50;;
49412;SDS011;35493;50.276;9.372;2022-07-22T09:06:17;4.72;;;1.48;;
49412;SDS011;35493;50.276;9.372;2022-07-22T09:08:52;2.85;;;1.50;;
49412;SDS011;35493;50.276;9.372;2022-07-22T09:11:38;4.75;;;1.58;;
49412;SDS011;35493;50.276;9.372;2022-07-22T09:14:16;2.35;;;1.42;;
49412;SDS011;35493;50.276;9.372;2022-07-22T09:17:21;2.83;;;1.75;;
49412;SDS011;35493;50.276;9.372;2022-07-22T09:20:14;2.55;;;1.60;;
49412;SDS011;35493;50.276;9.372;2022-07-22T09:23:08;2.45;;;1.52;;
49412;SDS011;35493;50.276;9.372;2022-07-22T09:25:39;3.17;;;1.95;;
49412;SDS011;35493;50.276;9.372;2022-07-22T09:28:33;4.07;;;1.70;;
49412;SDS011;35493;50.276;9.372;2022-07-22T09:31:25;3.20;;;1.70;;
49412;SDS011;35493;50.276;9.372;2022-07-22T09:33:56;3.00;;;1.63;;
49412;SDS011;35493;50.276;9.372;2022-07-22T09:36:26;3.13;;;1.80;;
49412;SDS011;35493;50.276;9.372;2022-07-22T09:38:56;4.38;;;1.88;;
49412;SDS011;35493;50.276;9.372;2022-07-22T09:41:23;2.72;;;1.45;;
49412;SDS011;35493;50.276;9.372;2022-07-22T09:43:50;3.00;;;1.70;;
49412;SDS011;35493;50.276;9.372;2022-07-22T09:46:19;2.50;;;1.67;;
49412;SDS011;35493;50.276;9.372;2022-07-22T09:49:29;3.28;;;1.80;;
49412;SDS011;35493;50.276;9.372;2022-07-22T09:52:16;2.78;;;1.77;;
49412;SDS011;35493;50.276;9.372;2022-07-22T09:55:14;3.80;;;1.80;;
49412;SDS011;35493;50.276;9.372;2022-07-22T09:57:45;2.72;;;1.80;;
49412;SDS011;35493;50.276;9.372;2022-07-22T10:00:13;2.70;;;1.55;;
49412;SDS011;35493;50.276;9.372;2022-07-22T10:02:50;2.35;;;1.50;;
49412;SDS011;35493;50.276;9.372;2022-07-22T10:05:20;2.92;;;1.70;;
49412;SDS011;35493;50.276;9.372;2022-07-22T10:07:48;2.17;;;1.33;;
49412;SDS011;35493;50.276;9.372;2022-07-22T10:10:19;5.03;;;1.92;;
49412;SDS011;35493;50.276;9.372;2022-07-22T10:12:48;3.10;;;1.60;;
49412;SDS011;35493;50.276;9.372;2022-07-22T10:15:16;2.97;;;1.70;;
49412;SDS011;35493;50.276;9.372;2022-07-22T10:17:44;4.38;;;1.80;;
49412;SDS011;35493;50.276;9.372;2022-07-22T10:20:15;3.35;;;1.83;;
49412;SDS011;35493;50.276;9.372;2022-07-22T10:22:46;2.33;;;1.60;;
49412;SDS011;35493;50.276;9.372;2022-07-22T10:25:20;3.15;;;1.80;;
49412;SDS011;35493;50.276;9.372;2022-07-22T10:27:49;3.60;;;1.90;;
49412;SDS011;35493;50.276;9.372;2022-07-22T10:30:20;2.80;;;1.77;;
49412;SDS011;35493;50.276;9.372;2022-07-22T10:33:07;3.58;;;2.03;;
49412;SDS011;35493;50.276;9.372;2022-07-22T10:35:36;3.20;;;1.55;;
49412;SDS011;35493;50.276;9.372;2022-07-22T10:38:06;3.75;;;1.80;;
49412;SDS011;35493;50.276;9.372;2022-07-22T10:43:17;4.20;;;1.90;;
49412;SDS011;35493;50.276;9.372;2022-07-22T10:45:46;3.03;;;1.70;;
49412;SDS011;35493;50.276;9.372;2022-07-22T10:48:15;3.20;;;1.73;;
49412;SDS011;35493;50.276;9.372;2022-07-22T10:50:45;2.55;;;1.45;;
49412;SDS011;35493;50.276;9.372;2022-07-22T10:53:22;4.18;;;1.80;;
49412;SDS011;35493;50.276;9.372;2022-07-22T10:55:58;3.25;;;1.85;;
49412;SDS011;35493;50.276;9.372;2022-07-22T10:58:40;3.63;;;2.30;;
49412;SDS011;35493;50.276;9.372;2022-07-22T11:01:13;2.87;;;1.80;;
49412;SDS011;35493;50.276;9.372;2022-07-22T11:03:42;3.65;;;1.90;;
49412;SDS011;35493;50.276;9.372;2022-07-22T11:06:17;2.60;;;1.63;;
49412;SDS011;35493;50.276;9.372;2022-07-22T11:08:46;3.70;;;1.77;;
49412;SDS011;35493;50.276;9.372;2022-07-22T11:11:16;3.40;;;1.90;;
49412;SDS011;35493;50.276;9.372;2022-07-22T11:16:14;3.05;;;1.65;;
49412;SDS011;35493;50.276;9.372;2022-07-22T11:18:46;3.50;;;1.73;;
49412;SDS011;35493;50.276;9.372;2022-07-22T11:21:18;3.25;;;1.67;;
49412;SDS011;35493;50.276;9.372;2022-07-22T11:23:47;3.13;;;2.00;;
49412;SDS011;35493;50.276;9.372;2022-07-22T11:28:44;4.85;;;1.85;;
49412;SDS011;35493;50.276;9.372;2022-07-22T11:31:14;3.90;;;2.15;;
49412;SDS011;35493;50.276;9.372;2022-07-22T11:33:42;4.63;;;2.03;;
49412;SDS011;35493;50.276;9.372;2022-07-22T11:36:09;4.18;;;2.10;;
49412;SDS011;35493;50.276;9.372;2022-07-22T11:38:41;4.00;;;2.30;;
49412;SDS011;35493;50.276;9.372;2022-07-22T11:41:12;3.72;;;2.00;;
49412;SDS011;35493;50.276;9.372;2022-07-22T11:43:42;4.68;;;2.78;;
49412;SDS011;35493;50.276;9.372;2022-07-22T11:46:11;4.60;;;2.33;;
49412;SDS011;35493;50.276;9.372;2022-07-22T11:48:38;4.68;;;2.20;;
49412;SDS011;35493;50.276;9.372;2022-07-22T11:51:06;3.35;;;2.10;;
49412;SDS011;35493;50.276;9.372;2022-07-22T11:53:35;4.88;;;2.30;;
49412;SDS011;35493;50.276;9.372;2022-07-22T11:56:03;4.47;;;2.28;;
49412;SDS011;35493;50.276;9.372;2022-07-22T11:58:38;3.33;;;2.15;;
49412;SDS011;35493;50.276;9.372;2022-07-22T12:01:09;6.07;;;2.13;;
49412;SDS011;35493;50.276;9.372;2022-07-22T12:03:37;3.72;;;2.42;;
49412;SDS011;35493;50.276;9.372;2022-07-22T12:06:07;4.28;;;1.95;;
49412;SDS011;35493;50.276;9.372;2022-07-22T12:08:38;3.80;;;2.20;;
49412;SDS011;35493;50.276;9.372;2022-07-22T12:11:07;4.20;;;2.22;;
49412;SDS011;35493;50.276;9.372;2022-07-22T12:13:35;4.03;;;2.40;;
49412;SDS011;35493;50.276;9.372;2022-07-22T12:16:17;5.25;;;2.50;;
49412;SDS011;35493;50.276;9.372;2022-07-22T12:18:52;4.63;;;2.35;;
49412;SDS011;35493;50.276;9.372;2022-07-22T12:21:22;5.53;;;2.13;;
49412;SDS011;35493;50.276;9.372;2022-07-22T12:23:50;3.15;;;2.25;;
49412;SDS011;35493;50.276;9.372;2022-07-22T12:26:41;5.57;;;2.70;;
49412;SDS011;35493;50.276;9.372;2022-07-22T12:31:58;4.88;;;2.72;;
49412;SDS011;35493;50.276;9.372;2022-07-22T12:37:14;4.60;;;2.40;;
49412;SDS011;35493;50.276;9.372;2022-07-22T12:39:53;4.40;;;2.70;;
49412;SDS011;35493;50.276;9.372;2022-07-22T12:42:25;7.38;;;2.95;;
49412;SDS011;35493;50.276;9.372;2022-07-22T12:45:00;4.05;;;2.53;;
49412;SDS011;35493;50.276;9.372;2022-07-22T12:47:40;5.88;;;2.70;;
49412;SDS011;35493;50.276;9.372;2022-07-22T12:50:20;4.65;;;2.83;;
49412;SDS011;35493;50.276;9.372;2022-07-22T12:52:53;5.28;;;3.00;;
49412;SDS011;35493;50.276;9.372;2022-07-22T12:55:23;5.63;;;3.00;;
49412;SDS011;35493;50.276;9.372;2022-07-22T12:57:50;5.43;;;2.72;;
49412;SDS011;35493;50.276;9.372;2022-07-22T13:00:18;6.55;;;3.15;;
49412;SDS011;35493;50.276;9.372;2022-07-22T13:02:48;4.50;;;2.65;;
49412;SDS011;35493;50.276;9.372;2022-07-22T13:05:15;4.45;;;2.63;;
49412;SDS011;35493;50.276;9.372;2022-07-22T13:07:42;5.53;;;3.00;;
49412;SDS011;35493;50.276;9.372;2022-07-22T13:10:10;4.80;;;3.03;;
49412;SDS011;35493;50.276;9.372;2022-07-22T13:12:37;4.40;;;2.60;;
49412;SDS011;35493;50.276;9.372;2022-07-22T13:15:05;5.68;;;2.78;;
49412;SDS011;35493;50.276;9.372;2022-07-22T13:17:34;3.53;;;2.13;;
49412;SDS011;35493;50.276;9.372;2022-07-22T13:20:03;3.47;;;2.35;;
49412;SDS011;35493;50.276;9.372;2022-07-22T13:22:31;5.72;;;2.90;;
49412;SDS011;35493;50.276;9.372;2022-07-22T13:24:57;4.25;;;2.50;;
49412;SDS011;35493;50.276;9.372;2022-07-22T13:27:24;4.32;;;2.60;;
49412;SDS011;35493;50.276;9.372;2022-07-22T13:29:51;4.88;;;2.70;;
49412;SDS011;35493;50.276;9.372;2022-07-22T13:32:18;5.43;;;3.10;;
49412;SDS011;35493;50.276;9.372;2022-07-22T13:34:45;5.00;;;2.95;;
49412;SDS011;35493;50.276;9.372;2022-07-22T13:37:13;6.35;;;2.95;;
49412;SDS011;35493;50.276;9.372;2022-07-22T13:39:40;6.88;;;4.00;;
49412;SDS011;35493;50.276;9.372;2022-07-22T13:42:10;6.63;;;3.95;;
49412;SDS011;35493;50.276;9.372;2022-07-22T13:44:37;5.78;;;3.55;;
49412;SDS011;35493;50.276;9.372;2022-07-22T13:47:05;6.55;;;3.53;;
49412;SDS011;35493;50.276;9.372;2022-07-22T13:49:32;6.18;;;2.95;;
49412;SDS011;35493;50.276;9.372;2022-07-22T13:51:59;7.18;;;2.90;;
49412;SDS011;35493;50.276;9.372;2022-07-22T13:54:28;5.35;;;3.35;;
49412;SDS011;35493;50.276;9.372;2022-07-22T13:56:55;5.78;;;3.10;;
49412;SDS011;35493;50.276;9.372;2022-07-22T13:59:22;7.72;;;3.15;;
49412;SDS011;35493;50.276;9.372;2022-07-22T14:01:50;5.88;;;3.25;;
49412;SDS011;35493;50.276;9.372;2022-07-22T14:04:17;5.60;;;3.03;;
49412;SDS011;35493;50.276;9.372;2022-07-22T14:06:44;6.07;;;3.10;;
49412;SDS011;35493;50.276;9.372;2022-07-22T14:09:11;4.70;;;2.75;;
49412;SDS011;35493;50.276;9.372;2022-07-22T14:11:39;4.53;;;2.92;;
49412;SDS011;35493;50.276;9.372;2022-07-22T14:14:06;3.97;;;2.78;;
49412;SDS011;35493;50.276;9.372;2022-07-22T14:16:34;5.60;;;3.15;;
49412;SDS011;35493;50.276;9.372;2022-07-22T14:19:03;4.60;;;3.10;;
49412;SDS011;35493;50.276;9.372;2022-07-22T14:21:31;5.10;;;3.08;;
49412;SDS011;35493;50.276;9.372;2022-07-22T14:23:59;5.32;;;2.97;;
49412;SDS011;35493;50.276;9.372;2022-07-22T14:26:27;6.70;;;3.03;;
49412;SDS011;35493;50.276;9.372;2022-07-22T14:28:56;6.63;;;2.97;;
49412;SDS011;35493;50.276;9.372;2022-07-22T14:31:23;5.05;;;2.97;;
49412;SDS011;35493;50.276;9.372;2022-07-22T14:33:51;5.90;;;3.05;;
49412;SDS011;35493;50.276;9.372;2022-07-22T14:36:18;6.65;;;3.47;;
49412;SDS011;35493;50.276;9.372;2022-07-22T14:38:45;9.07;;;3.50;;
49412;SDS011;35493;50.276;9.372;2022-07-22T14:41:12;7.15;;;3.25;;
49412;SDS011;35493;50.276;9.372;2022-07-22T14:43:39;6.88;;;3.55;;
49412;SDS011;35493;50.276;9.372;2022-07-22T14:46:07;7.18;;;3.65;;
49412;SDS011;35493;50.276;9.372;2022-07-22T14:48:35;8.48;;;3.28;;
49412;SDS011;35493;50.276;9.372;2022-07-22T14:51:02;8.10;;;3.47;;
49412;SDS011;35493;50.276;9.372;2022-07-22T14:53:29;6.25;;;3.25;;
49412;SDS011;35493;50.276;9.372;2022-07-22T14:55:57;8.43;;;3.08;;
49412;SDS011;35493;50.276;9.372;2022-07-22T14:58:24;7.22;;;3.88;;
49412;SDS011;35493;50.276;9.372;2022-07-22T15:00:51;9.25;;;3.55;;
49412;SDS011;35493;50.276;9.372;2022-07-22T15:03:22;6.75;;;3.55;;
49412;SDS011;35493;50.276;9.372;2022-07-22T15:05:49;9.38;;;3.17;;
49412;SDS011;35493;50.276;9.372;2022-07-22T15:08:16;8.52;;;3.88;;
49412;SDS011;35493;50.276;9.372;2022-07-22T15:10:44;6.57;;;3.03;;
49412;SDS011;35493;50.276;9.372;2022-07-22T15:13:11;5.70;;;3.08;;
49412;SDS011;35493;50.276;9.372;2022-07-22T15:15:38;5.80;;;3.20;;
49412;SDS011;35493;50.276;9.372;2022-07-22T15:18:04;7.63;;;2.90;;
49412;SDS011;35493;50.276;9.372;2022-07-22T15:20:33;5.00;;;2.97;;
49412;SDS011;35493;50.276;9.372;2022-07-22T15:23:02;5.78;;;2.88;;